sensor_id;sensor_type;location;lat;lon;timestamp;temperature;humidity
488;DHT22;16586;48.976;9.584;2022-10-20T00:01:18;13.70;57.50
488;DHT22;16586;48.976;9.584;2022-10-20T00:03:46;13.70;57.40
488;DHT22;16586;48.976;9.584;2022-10-20T00:06:16;13.60;57.40
488;DHT22;16586;48.976;9.584;2022-10-20T00:08:44;13.60;57.40
488;DHT22;16586;48.976;9.584;2022-10-20T00:11:13;13.60;57.30
488;DHT22;16586;48.976;9.584;2022-10-20T00:13:43;13.60;57.30
488;DHT22;16586;48.976;9.584;2022-10-20T00:16:11;13.60;57.10
488;DHT22;16586;48.976;9.584;2022-10-20T00:18:38;13.60;57.30
488;DHT22;16586;48.976;9.584;2022-10-20T00:21:05;13.50;57.10
488;DHT22;16586;48.976;9.584;2022-10-20T00:23:32;13.50;57.20
488;DHT22;16586;48.976;9.584;2022-10-20T00:26:00;13.50;57.20
488;DHT22;16586;48.976;9.584;2022-10-20T00:28:27;13.50;57.10
488;DHT22;16586;48.976;9.584;2022-10-20T00:30:56;13.50;57.40
488;DHT22;16586;48.976;9.584;2022-10-20T00:33:23;13.40;57.10
488;DHT22;16586;48.976;9.584;2022-10-20T00:35:49;13.40;57.40
488;DHT22;16586;48.976;9.584;2022-10-20T00:38:16;13.40;57.30
488;DHT22;16586;48.976;9.584;2022-10-20T00:40:43;13.40;57.20
488;DHT22;16586;48.976;9.584;2022-10-20T00:43:11;13.40;57.10
488;DHT22;16586;48.976;9.584;2022-10-20T00:45:39;13.40;57.00
488;DHT22;16586;48.976;9.584;2022-10-20T00:48:12;13.40;56.90
488;DHT22;16586;48.976;9.584;2022-10-20T00:50:42;13.30;56.80
488;DHT22;16586;48.976;9.584;2022-10-20T00:53:09;13.30;56.80
488;DHT22;16586;48.976;9.584;2022-10-20T00:55:40;13.30;56.70
488;DHT22;16586;48.976;9.584;2022-10-20T00:58:07;13.10;56.80
488;DHT22;16586;48.976;9.584;2022-10-20T01:00:36;13.10;57.00
488;DHT22;16586;48.976;9.584;2022-10-20T01:03:06;13.10;57.50
488;DHT22;16586;48.976;9.584;2022-10-20T01:05:34;13.10;57.30
488;DHT22;16586;48.976;9.584;2022-10-20T01:08:00;13.00;57.00
488;DHT22;16586;48.976;9.584;2022-10-20T01:10:31;13.00;57.20
488;DHT22;16586;48.976;9.584;2022-10-20T01:13:04;13.00;57.40
488;DHT22;16586;48.976;9.584;2022-10-20T01:15:36;13.00;57.50
488;DHT22;16586;48.976;9.584;2022-10-20T01:18:09;13.00;57.40
488;DHT22;16586;48.976;9.584;2022-10-20T01:21:10;13.00;57.60
488;DHT22;16586;48.976;9.584;2022-10-20T01:24:04;13.00;57.60
488;DHT22;16586;48.976;9.584;2022-10-20T01:26:50;13.00;57.60
488;DHT22;16586;48.976;9.584;2022-10-20T01:29:28;13.00;57.60
488;DHT22;16586;48.976;9.584;2022-10-20T01:32:03;13.10;57.70
488;DHT22;16586;48.976;9.584;2022-10-20T01:34:38;13.00;57.50
488;DHT22;16586;48.976;9.584;2022-10-20T01:37:11;13.00;57.60
488;DHT22;16586;48.976;9.584;2022-10-20T01:39:48;13.10;57.50
488;DHT22;16586;48.976;9.584;2022-10-20T01:42:20;13.10;57.40
488;DHT22;16586;48.976;9.584;2022-10-20T01:44:51;13.10;57.30
488;DHT22;16586;48.976;9.584;2022-10-20T01:47:20;13.00;57.30
488;DHT22;16586;48.976;9.584;2022-10-20T01:49:48;13.00;57.20
488;DHT22;16586;48.976;9.584;2022-10-20T01:52:15;13.00;57.20
488;DHT22;16586;48.976;9.584;2022-10-20T01:54:41;12.90;57.20
488;DHT22;16586;48.976;9.584;2022-10-20T01:57:22;13.00;57.30
488;DHT22;16586;48.976;9.584;2022-10-20T02:00:03;13.00;57.20
488;DHT22;16586;48.976;9.584;2022-10-20T02:03:07;12.90;57.00
488;DHT22;16586;48.976;9.584;2022-10-20T02:05:47;13.00;56.80
488;DHT22;16586;48.976;9.584;2022-10-20T02:08:25;12.90;57.00
488;DHT22;16586;48.976;9.584;2022-10-20T02:10:58;12.90;57.20
488;DHT22;16586;48.976;9.584;2022-10-20T02:13:27;12.80;57.30
488;DHT22;16586;48.976;9.584;2022-10-20T02:15:58;12.80;57.40
488;DHT22;16586;48.976;9.584;2022-10-20T02:18:30;12.80;57.40
488;DHT22;16586;48.976;9.584;2022-10-20T02:20:58;12.80;57.60
488;DHT22;16586;48.976;9.584;2022-10-20T02:23:28;12.80;57.70
488;DHT22;16586;48.976;9.584;2022-10-20T02:25:57;12.90;57.60
488;DHT22;16586;48.976;9.584;2022-10-20T02:28:25;12.80;57.80
488;DHT22;16586;48.976;9.584;2022-10-20T02:30:55;12.80;58.00
488;DHT22;16586;48.976;9.584;2022-10-20T02:33:22;12.80;58.00
488;DHT22;16586;48.976;9.584;2022-10-20T02:35:55;12.80;58.00
488;DHT22;16586;48.976;9.584;2022-10-20T02:38:23;12.80;58.20
488;DHT22;16586;48.976;9.584;2022-10-20T02:40:49;12.80;58.20
488;DHT22;16586;48.976;9.584;2022-10-20T02:43:16;12.80;58.10
488;DHT22;16586;48.976;9.584;2022-10-20T02:45:43;12.90;58.20
488;DHT22;16586;48.976;9.584;2022-10-20T02:48:11;12.90;58.10
488;DHT22;16586;48.976;9.584;2022-10-20T02:50:38;12.90;58.30
488;DHT22;16586;48.976;9.584;2022-10-20T02:53:05;12.90;58.30
488;DHT22;16586;48.976;9.584;2022-10-20T02:55:31;12.90;58.20
488;DHT22;16586;48.976;9.584;2022-10-20T02:57:58;12.90;58.30
488;DHT22;16586;48.976;9.584;2022-10-20T03:00:25;12.90;58.30
488;DHT22;16586;48.976;9.584;2022-10-20T03:02:55;12.90;58.20
488;DHT22;16586;48.976;9.584;2022-10-20T03:05:25;12.90;58.20
488;DHT22;16586;48.976;9.584;2022-10-20T03:07:52;12.90;57.90
488;DHT22;16586;48.976;9.584;2022-10-20T03:10:19;12.80;57.80
488;DHT22;16586;48.976;9.584;2022-10-20T03:12:46;12.80;58.00
488;DHT22;16586;48.976;9.584;2022-10-20T03:15:13;12.90;58.20
488;DHT22;16586;48.976;9.584;2022-10-20T03:17:40;12.80;57.90
488;DHT22;16586;48.976;9.584;2022-10-20T03:20:07;12.80;58.00
488;DHT22;16586;48.976;9.584;2022-10-20T03:22:36;12.80;58.00
488;DHT22;16586;48.976;9.584;2022-10-20T03:25:03;12.80;58.10
488;DHT22;16586;48.976;9.584;2022-10-20T03:27:30;12.80;58.20
488;DHT22;16586;48.976;9.584;2022-10-20T03:29:56;12.80;58.30
488;DHT22;16586;48.976;9.584;2022-10-20T03:32:23;12.80;58.40
488;DHT22;16586;48.976;9.584;2022-10-20T03:34:50;12.80;58.50
488;DHT22;16586;48.976;9.584;2022-10-20T03:37:17;12.90;58.40
488;DHT22;16586;48.976;9.584;2022-10-20T03:39:45;12.90;58.00
488;DHT22;16586;48.976;9.584;2022-10-20T03:42:11;12.90;58.30
488;DHT22;16586;48.976;9.584;2022-10-20T03:44:38;12.90;58.20
488;DHT22;16586;48.976;9.584;2022-10-20T03:47:05;12.90;58.30
488;DHT22;16586;48.976;9.584;2022-10-20T03:49:32;12.90;58.40
488;DHT22;16586;48.976;9.584;2022-10-20T03:51:59;12.80;58.30
488;DHT22;16586;48.976;9.584;2022-10-20T03:54:25;12.90;58.70
488;DHT22;16586;48.976;9.584;2022-10-20T03:56:54;12.80;58.50
488;DHT22;16586;48.976;9.584;2022-10-20T03:59:21;12.80;58.60
488;DHT22;16586;48.976;9.584;2022-10-20T04:01:48;12.80;58.80
488;DHT22;16586;48.976;9.584;2022-10-20T04:04:14;12.80;58.80
488;DHT22;16586;48.976;9.584;2022-10-20T04:06:41;12.80;58.80
488;DHT22;16586;48.976;9.584;2022-10-20T04:09:08;12.80;58.80
488;DHT22;16586;48.976;9.584;2022-10-20T04:11:35;12.80;58.40
488;DHT22;16586;48.976;9.584;2022-10-20T04:14:03;12.90;58.80
488;DHT22;16586;48.976;9.584;2022-10-20T04:16:30;12.90;58.60
488;DHT22;16586;48.976;9.584;2022-10-20T04:18:56;12.90;58.80
488;DHT22;16586;48.976;9.584;2022-10-20T04:21:23;12.90;58.90
488;DHT22;16586;48.976;9.584;2022-10-20T04:23:51;12.90;59.10
488;DHT22;16586;48.976;9.584;2022-10-20T04:26:17;13.00;59.20
488;DHT22;16586;48.976;9.584;2022-10-20T04:28:44;13.00;59.00
488;DHT22;16586;48.976;9.584;2022-10-20T04:31:12;13.00;59.20
488;DHT22;16586;48.976;9.584;2022-10-20T04:33:39;13.00;59.10
488;DHT22;16586;48.976;9.584;2022-10-20T04:36:09;13.10;59.00
488;DHT22;16586;48.976;9.584;2022-10-20T04:38:37;13.10;58.70
488;DHT22;16586;48.976;9.584;2022-10-20T04:41:04;13.10;58.70
488;DHT22;16586;48.976;9.584;2022-10-20T04:43:31;13.10;58.70
488;DHT22;16586;48.976;9.584;2022-10-20T04:45:59;13.20;58.80
488;DHT22;16586;48.976;9.584;2022-10-20T04:48:27;13.20;58.80
488;DHT22;16586;48.976;9.584;2022-10-20T04:51:01;13.20;58.60
488;DHT22;16586;48.976;9.584;2022-10-20T04:53:28;13.20;58.80
488;DHT22;16586;48.976;9.584;2022-10-20T04:55:56;13.20;59.00
488;DHT22;16586;48.976;9.584;2022-10-20T04:58:23;13.30;59.00
488;DHT22;16586;48.976;9.584;2022-10-20T05:00:50;13.30;58.90
488;DHT22;16586;48.976;9.584;2022-10-20T05:03:17;13.30;59.30
488;DHT22;16586;48.976;9.584;2022-10-20T05:05:46;13.30;59.40
488;DHT22;16586;48.976;9.584;2022-10-20T05:08:15;13.20;59.40
488;DHT22;16586;48.976;9.584;2022-10-20T05:10:42;13.30;59.80
488;DHT22;16586;48.976;9.584;2022-10-20T05:13:09;13.30;59.90
488;DHT22;16586;48.976;9.584;2022-10-20T05:15:35;13.30;59.80
488;DHT22;16586;48.976;9.584;2022-10-20T05:18:02;13.40;60.30
488;DHT22;16586;48.976;9.584;2022-10-20T05:20:29;13.30;60.00
488;DHT22;16586;48.976;9.584;2022-10-20T05:22:57;13.40;60.40
488;DHT22;16586;48.976;9.584;2022-10-20T05:25:24;13.40;60.50
488;DHT22;16586;48.976;9.584;2022-10-20T05:27:51;13.40;60.60
488;DHT22;16586;48.976;9.584;2022-10-20T05:30:17;13.50;60.60
488;DHT22;16586;48.976;9.584;2022-10-20T05:32:45;13.60;60.80
488;DHT22;16586;48.976;9.584;2022-10-20T05:35:12;13.60;60.80
488;DHT22;16586;48.976;9.584;2022-10-20T05:37:39;13.60;60.70
488;DHT22;16586;48.976;9.584;2022-10-20T05:40:08;13.60;60.70
488;DHT22;16586;48.976;9.584;2022-10-20T05:42:35;13.60;61.10
488;DHT22;16586;48.976;9.584;2022-10-20T05:45:02;13.60;61.00
488;DHT22;16586;48.976;9.584;2022-10-20T05:47:29;13.60;61.10
488;DHT22;16586;48.976;9.584;2022-10-20T05:49:56;13.70;60.90
488;DHT22;16586;48.976;9.584;2022-10-20T05:52:23;13.70;61.10
488;DHT22;16586;48.976;9.584;2022-10-20T05:54:50;13.70;61.20
488;DHT22;16586;48.976;9.584;2022-10-20T05:57:18;13.70;61.10
488;DHT22;16586;48.976;9.584;2022-10-20T05:59:45;13.70;61.00
488;DHT22;16586;48.976;9.584;2022-10-20T06:02:12;13.80;61.20
488;DHT22;16586;48.976;9.584;2022-10-20T06:04:38;13.80;61.50
488;DHT22;16586;48.976;9.584;2022-10-20T06:07:05;13.80;61.10
488;DHT22;16586;48.976;9.584;2022-10-20T06:09:34;13.80;61.20
488;DHT22;16586;48.976;9.584;2022-10-20T06:12:02;13.70;61.30
488;DHT22;16586;48.976;9.584;2022-10-20T06:14:34;13.80;61.30
488;DHT22;16586;48.976;9.584;2022-10-20T06:17:00;13.80;61.20
488;DHT22;16586;48.976;9.584;2022-10-20T06:19:27;13.70;61.30
488;DHT22;16586;48.976;9.584;2022-10-20T06:21:54;13.70;61.10
488;DHT22;16586;48.976;9.584;2022-10-20T06:24:21;13.70;61.20
488;DHT22;16586;48.976;9.584;2022-10-20T06:26:48;13.70;61.40
488;DHT22;16586;48.976;9.584;2022-10-20T06:29:17;13.70;61.70
488;DHT22;16586;48.976;9.584;2022-10-20T06:31:47;13.70;61.80
488;DHT22;16586;48.976;9.584;2022-10-20T06:34:15;13.70;61.70
488;DHT22;16586;48.976;9.584;2022-10-20T06:36:43;13.60;62.00
488;DHT22;16586;48.976;9.584;2022-10-20T06:39:12;13.70;62.40
488;DHT22;16586;48.976;9.584;2022-10-20T06:41:40;13.60;62.50
488;DHT22;16586;48.976;9.584;2022-10-20T06:44:07;13.70;62.60
488;DHT22;16586;48.976;9.584;2022-10-20T06:46:35;13.60;62.40
488;DHT22;16586;48.976;9.584;2022-10-20T06:49:05;13.70;62.70
488;DHT22;16586;48.976;9.584;2022-10-20T06:51:36;13.70;62.70
488;DHT22;16586;48.976;9.584;2022-10-20T06:54:04;13.70;62.70
488;DHT22;16586;48.976;9.584;2022-10-20T06:56:32;13.90;62.90
488;DHT22;16586;48.976;9.584;2022-10-20T06:59:00;13.80;62.80
488;DHT22;16586;48.976;9.584;2022-10-20T07:01:29;13.90;62.90
488;DHT22;16586;48.976;9.584;2022-10-20T07:03:58;14.00;63.00
488;DHT22;16586;48.976;9.584;2022-10-20T07:06:29;14.00;62.90
488;DHT22;16586;48.976;9.584;2022-10-20T07:08:57;14.10;63.10
488;DHT22;16586;48.976;9.584;2022-10-20T07:11:26;14.10;62.90
488;DHT22;16586;48.976;9.584;2022-10-20T07:13:53;14.10;63.10
488;DHT22;16586;48.976;9.584;2022-10-20T07:16:22;14.10;62.90
488;DHT22;16586;48.976;9.584;2022-10-20T07:18:50;14.20;63.20
488;DHT22;16586;48.976;9.584;2022-10-20T07:21:19;14.20;63.00
488;DHT22;16586;48.976;9.584;2022-10-20T07:23:48;14.20;63.00
488;DHT22;16586;48.976;9.584;2022-10-20T07:26:17;14.10;63.10
488;DHT22;16586;48.976;9.584;2022-10-20T07:28:46;14.20;63.50
488;DHT22;16586;48.976;9.584;2022-10-20T07:31:14;14.30;63.30
488;DHT22;16586;48.976;9.584;2022-10-20T07:33:42;14.30;64.10
488;DHT22;16586;48.976;9.584;2022-10-20T07:36:13;14.30;63.30
488;DHT22;16586;48.976;9.584;2022-10-20T07:38:40;14.40;62.80
488;DHT22;16586;48.976;9.584;2022-10-20T07:41:09;14.40;62.90
488;DHT22;16586;48.976;9.584;2022-10-20T07:43:37;14.40;62.80
488;DHT22;16586;48.976;9.584;2022-10-20T07:46:04;14.40;62.50
488;DHT22;16586;48.976;9.584;2022-10-20T07:48:31;14.40;62.90
488;DHT22;16586;48.976;9.584;2022-10-20T07:51:15;14.50;63.00
488;DHT22;16586;48.976;9.584;2022-10-20T07:53:43;14.50;63.40
488;DHT22;16586;48.976;9.584;2022-10-20T07:56:11;14.50;63.00
488;DHT22;16586;48.976;9.584;2022-10-20T07:58:38;14.50;63.40
488;DHT22;16586;48.976;9.584;2022-10-20T08:01:05;14.60;63.30
488;DHT22;16586;48.976;9.584;2022-10-20T08:03:32;14.60;63.30
488;DHT22;16586;48.976;9.584;2022-10-20T08:06:00;14.70;63.60
488;DHT22;16586;48.976;9.584;2022-10-20T08:08:27;14.80;63.50
488;DHT22;16586;48.976;9.584;2022-10-20T08:10:53;14.80;63.80
488;DHT22;16586;48.976;9.584;2022-10-20T08:13:23;14.90;63.90
488;DHT22;16586;48.976;9.584;2022-10-20T08:15:50;15.00;64.00
488;DHT22;16586;48.976;9.584;2022-10-20T08:18:17;15.10;63.80
488;DHT22;16586;48.976;9.584;2022-10-20T08:20:44;15.30;63.20
488;DHT22;16586;48.976;9.584;2022-10-20T08:23:11;15.40;63.10
488;DHT22;16586;48.976;9.584;2022-10-20T08:25:38;15.40;63.00
488;DHT22;16586;48.976;9.584;2022-10-20T08:28:06;15.50;62.90
488;DHT22;16586;48.976;9.584;2022-10-20T08:30:35;15.60;62.40
488;DHT22;16586;48.976;9.584;2022-10-20T08:33:02;15.70;62.00
488;DHT22;16586;48.976;9.584;2022-10-20T08:35:29;15.80;61.70
488;DHT22;16586;48.976;9.584;2022-10-20T08:37:55;15.80;60.90
488;DHT22;16586;48.976;9.584;2022-10-20T08:40:25;15.80;61.30
488;DHT22;16586;48.976;9.584;2022-10-20T08:42:52;15.80;60.70
488;DHT22;16586;48.976;9.584;2022-10-20T08:45:21;15.80;60.70
488;DHT22;16586;48.976;9.584;2022-10-20T08:47:53;15.80;60.70
488;DHT22;16586;48.976;9.584;2022-10-20T08:50:21;15.80;60.50
488;DHT22;16586;48.976;9.584;2022-10-20T08:52:52;15.90;60.40
488;DHT22;16586;48.976;9.584;2022-10-20T08:55:25;15.90;60.40
488;DHT22;16586;48.976;9.584;2022-10-20T08:57:56;15.90;60.40
488;DHT22;16586;48.976;9.584;2022-10-20T09:00:25;15.90;60.60
488;DHT22;16586;48.976;9.584;2022-10-20T09:02:54;16.00;60.60
488;DHT22;16586;48.976;9.584;2022-10-20T09:05:23;16.00;60.60
488;DHT22;16586;48.976;9.584;2022-10-20T09:07:51;16.10;60.30
488;DHT22;16586;48.976;9.584;2022-10-20T09:10:31;16.10;60.30
488;DHT22;16586;48.976;9.584;2022-10-20T09:12:59;16.20;60.40
488;DHT22;16586;48.976;9.584;2022-10-20T09:15:27;16.20;60.40
488;DHT22;16586;48.976;9.584;2022-10-20T09:17:58;16.30;60.40
488;DHT22;16586;48.976;9.584;2022-10-20T09:20:29;16.40;60.40
488;DHT22;16586;48.976;9.584;2022-10-20T09:22:57;16.50;60.60
488;DHT22;16586;48.976;9.584;2022-10-20T09:25:25;16.60;60.40
488;DHT22;16586;48.976;9.584;2022-10-20T09:27:53;16.70;60.20
488;DHT22;16586;48.976;9.584;2022-10-20T09:30:23;16.80;60.30
488;DHT22;16586;48.976;9.584;2022-10-20T09:32:51;16.90;59.60
488;DHT22;16586;48.976;9.584;2022-10-20T09:35:23;17.10;59.80
488;DHT22;16586;48.976;9.584;2022-10-20T09:37:54;17.30;59.90
488;DHT22;16586;48.976;9.584;2022-10-20T09:40:22;17.50;59.70
488;DHT22;16586;48.976;9.584;2022-10-20T09:42:53;17.80;59.50
488;DHT22;16586;48.976;9.584;2022-10-20T09:45:23;18.10;59.30
488;DHT22;16586;48.976;9.584;2022-10-20T09:47:55;18.30;58.50
488;DHT22;16586;48.976;9.584;2022-10-20T09:50:28;18.50;57.50
488;DHT22;16586;48.976;9.584;2022-10-20T09:52:57;18.80;56.60
488;DHT22;16586;48.976;9.584;2022-10-20T09:55:28;19.00;56.20
488;DHT22;16586;48.976;9.584;2022-10-20T09:57:57;19.20;55.00
488;DHT22;16586;48.976;9.584;2022-10-20T10:00:26;19.30;54.60
488;DHT22;16586;48.976;9.584;2022-10-20T10:03:23;19.40;53.80
488;DHT22;16586;48.976;9.584;2022-10-20T10:05:52;19.50;53.50
488;DHT22;16586;48.976;9.584;2022-10-20T10:08:21;19.50;53.00
488;DHT22;16586;48.976;9.584;2022-10-20T10:10:58;19.60;53.00
488;DHT22;16586;48.976;9.584;2022-10-20T10:13:26;19.60;52.60
488;DHT22;16586;48.976;9.584;2022-10-20T10:16:03;19.50;52.10
488;DHT22;16586;48.976;9.584;2022-10-20T10:18:30;19.50;52.30
488;DHT22;16586;48.976;9.584;2022-10-20T10:21:02;19.50;52.60
488;DHT22;16586;48.976;9.584;2022-10-20T10:23:30;19.40;52.60
488;DHT22;16586;48.976;9.584;2022-10-20T10:25:58;19.40;52.70
488;DHT22;16586;48.976;9.584;2022-10-20T10:28:31;19.50;51.70
488;DHT22;16586;48.976;9.584;2022-10-20T10:31:17;19.60;52.30
488;DHT22;16586;48.976;9.584;2022-10-20T10:33:45;19.70;51.90
488;DHT22;16586;48.976;9.584;2022-10-20T10:36:20;19.70;51.70
488;DHT22;16586;48.976;9.584;2022-10-20T10:38:51;19.70;50.40
488;DHT22;16586;48.976;9.584;2022-10-20T10:41:22;19.60;51.70
488;DHT22;16586;48.976;9.584;2022-10-20T10:43:58;19.70;52.00
488;DHT22;16586;48.976;9.584;2022-10-20T10:46:27;19.80;52.10
488;DHT22;16586;48.976;9.584;2022-10-20T10:49:18;20.00;51.70
488;DHT22;16586;48.976;9.584;2022-10-20T10:51:58;20.10;51.50
488;DHT22;16586;48.976;9.584;2022-10-20T10:54:42;20.20;51.30
488;DHT22;16586;48.976;9.584;2022-10-20T10:57:20;20.20;51.10
488;DHT22;16586;48.976;9.584;2022-10-20T10:59:51;20.30;50.90
488;DHT22;16586;48.976;9.584;2022-10-20T11:02:57;20.30;51.00
488;DHT22;16586;48.976;9.584;2022-10-20T11:08:43;20.60;51.20
488;DHT22;16586;48.976;9.584;2022-10-20T11:11:22;21.10;51.70
488;DHT22;16586;48.976;9.584;2022-10-20T11:13:54;21.70;51.10
488;DHT22;16586;48.976;9.584;2022-10-20T11:16:30;22.30;49.90
488;DHT22;16586;48.976;9.584;2022-10-20T11:19:39;22.70;44.00
488;DHT22;16586;48.976;9.584;2022-10-20T11:22:15;22.80;45.10
488;DHT22;16586;48.976;9.584;2022-10-20T11:24:53;22.90;44.40
488;DHT22;16586;48.976;9.584;2022-10-20T11:27:25;22.90;44.20
488;DHT22;16586;48.976;9.584;2022-10-20T11:29:54;22.90;44.20
488;DHT22;16586;48.976;9.584;2022-10-20T11:32:33;22.80;44.50
488;DHT22;16586;48.976;9.584;2022-10-20T11:35:04;22.80;44.80
488;DHT22;16586;48.976;9.584;2022-10-20T11:37:37;22.60;45.00
488;DHT22;16586;48.976;9.584;2022-10-20T11:40:18;22.50;45.30
488;DHT22;16586;48.976;9.584;2022-10-20T11:42:53;22.40;45.50
488;DHT22;16586;48.976;9.584;2022-10-20T11:45:31;22.30;45.50
488;DHT22;16586;48.976;9.584;2022-10-20T11:48:03;22.20;45.30
488;DHT22;16586;48.976;9.584;2022-10-20T11:50:33;22.10;45.60
488;DHT22;16586;48.976;9.584;2022-10-20T11:56:39;21.90;46.40
488;DHT22;16586;48.976;9.584;2022-10-20T11:59:39;21.90;46.40
488;DHT22;16586;48.976;9.584;2022-10-20T12:02:43;21.80;46.50
488;DHT22;16586;48.976;9.584;2022-10-20T12:05:37;21.80;46.60
488;DHT22;16586;48.976;9.584;2022-10-20T12:08:27;21.70;46.50
488;DHT22;16586;48.976;9.584;2022-10-20T12:11:04;21.50;46.70
488;DHT22;16586;48.976;9.584;2022-10-20T12:13:40;21.40;46.80
488;DHT22;16586;48.976;9.584;2022-10-20T12:16:11;21.40;46.90
488;DHT22;16586;48.976;9.584;2022-10-20T12:18:38;21.30;47.10
488;DHT22;16586;48.976;9.584;2022-10-20T12:21:06;21.30;47.20
488;DHT22;16586;48.976;9.584;2022-10-20T12:23:52;21.30;47.20
488;DHT22;16586;48.976;9.584;2022-10-20T12:29:55;21.20;47.20
488;DHT22;16586;48.976;9.584;2022-10-20T12:38:23;21.10;47.60
488;DHT22;16586;48.976;9.584;2022-10-20T12:40:57;21.00;47.50
488;DHT22;16586;48.976;9.584;2022-10-20T12:43:39;21.00;47.70
488;DHT22;16586;48.976;9.584;2022-10-20T12:46:18;20.90;47.80
488;DHT22;16586;48.976;9.584;2022-10-20T12:48:47;20.90;47.90
488;DHT22;16586;48.976;9.584;2022-10-20T12:51:31;20.90;47.90
488;DHT22;16586;48.976;9.584;2022-10-20T12:54:03;21.00;48.10
488;DHT22;16586;48.976;9.584;2022-10-20T12:56:35;21.00;48.00
488;DHT22;16586;48.976;9.584;2022-10-20T13:02:47;21.00;47.90
488;DHT22;16586;48.976;9.584;2022-10-20T13:05:43;21.00;47.90
488;DHT22;16586;48.976;9.584;2022-10-20T13:08:31;20.90;48.20
488;DHT22;16586;48.976;9.584;2022-10-20T13:11:33;20.90;48.30
488;DHT22;16586;48.976;9.584;2022-10-20T13:17:29;20.80;48.70
488;DHT22;16586;48.976;9.584;2022-10-20T13:20:15;20.80;48.80
488;DHT22;16586;48.976;9.584;2022-10-20T13:22:45;20.70;48.90
488;DHT22;16586;48.976;9.584;2022-10-20T13:25:18;20.70;49.00
488;DHT22;16586;48.976;9.584;2022-10-20T13:27:48;20.70;49.10
488;DHT22;16586;48.976;9.584;2022-10-20T13:30:19;20.50;49.90
488;DHT22;16586;48.976;9.584;2022-10-20T13:32:54;20.50;49.80
488;DHT22;16586;48.976;9.584;2022-10-20T13:35:27;20.50;49.70
488;DHT22;16586;48.976;9.584;2022-10-20T13:37:57;20.40;49.90
488;DHT22;16586;48.976;9.584;2022-10-20T13:40:37;20.40;49.90
488;DHT22;16586;48.976;9.584;2022-10-20T13:43:19;20.30;50.50
488;DHT22;16586;48.976;9.584;2022-10-20T13:46:08;20.20;50.90
488;DHT22;16586;48.976;9.584;2022-10-20T13:48:49;20.00;50.80
488;DHT22;16586;48.976;9.584;2022-10-20T13:51:24;20.00;52.00
488;DHT22;16586;48.976;9.584;2022-10-20T13:53:54;19.90;52.50
488;DHT22;16586;48.976;9.584;2022-10-20T13:56:29;19.80;53.10
488;DHT22;16586;48.976;9.584;2022-10-20T13:58:57;19.70;53.20
488;DHT22;16586;48.976;9.584;2022-10-20T14:01:25;19.70;54.10
488;DHT22;16586;48.976;9.584;2022-10-20T14:03:52;19.60;54.20
488;DHT22;16586;48.976;9.584;2022-10-20T14:06:35;19.60;54.80
488;DHT22;16586;48.976;9.584;2022-10-20T14:09:14;19.70;55.20
488;DHT22;16586;48.976;9.584;2022-10-20T14:11:43;19.60;55.10
488;DHT22;16586;48.976;9.584;2022-10-20T14:14:13;19.60;55.20
488;DHT22;16586;48.976;9.584;2022-10-20T14:16:47;19.60;54.80
488;DHT22;16586;48.976;9.584;2022-10-20T14:19:15;19.50;55.40
488;DHT22;16586;48.976;9.584;2022-10-20T14:21:44;19.50;55.40
488;DHT22;16586;48.976;9.584;2022-10-20T14:24:17;19.50;55.80
488;DHT22;16586;48.976;9.584;2022-10-20T14:26:47;19.50;55.10
488;DHT22;16586;48.976;9.584;2022-10-20T14:29:16;19.50;55.00
488;DHT22;16586;48.976;9.584;2022-10-20T14:31:44;19.50;55.00
488;DHT22;16586;48.976;9.584;2022-10-20T14:34:17;19.50;55.00
488;DHT22;16586;48.976;9.584;2022-10-20T14:36:48;19.30;54.60
488;DHT22;16586;48.976;9.584;2022-10-20T14:39:31;19.30;54.90
488;DHT22;16586;48.976;9.584;2022-10-20T14:42:01;19.20;55.00
488;DHT22;16586;48.976;9.584;2022-10-20T14:44:28;19.20;55.00
488;DHT22;16586;48.976;9.584;2022-10-20T14:46:57;19.30;54.90
488;DHT22;16586;48.976;9.584;2022-10-20T14:49:26;19.30;55.10
488;DHT22;16586;48.976;9.584;2022-10-20T14:51:58;19.30;55.10
488;DHT22;16586;48.976;9.584;2022-10-20T14:54:30;19.30;55.10
488;DHT22;16586;48.976;9.584;2022-10-20T14:56:59;19.30;54.90
488;DHT22;16586;48.976;9.584;2022-10-20T14:59:28;19.20;55.80
488;DHT22;16586;48.976;9.584;2022-10-20T15:02:01;19.20;55.30
488;DHT22;16586;48.976;9.584;2022-10-20T15:04:34;19.10;55.30
488;DHT22;16586;48.976;9.584;2022-10-20T15:07:05;19.00;55.70
488;DHT22;16586;48.976;9.584;2022-10-20T15:09:38;19.00;55.80
488;DHT22;16586;48.976;9.584;2022-10-20T15:12:07;19.00;56.00
488;DHT22;16586;48.976;9.584;2022-10-20T15:14:38;18.90;56.00
488;DHT22;16586;48.976;9.584;2022-10-20T15:17:33;18.80;56.00
488;DHT22;16586;48.976;9.584;2022-10-20T15:20:32;18.80;56.20
488;DHT22;16586;48.976;9.584;2022-10-20T15:23:02;18.80;56.40
488;DHT22;16586;48.976;9.584;2022-10-20T15:25:31;18.70;57.50
488;DHT22;16586;48.976;9.584;2022-10-20T15:28:02;18.70;57.00
488;DHT22;16586;48.976;9.584;2022-10-20T15:30:29;18.60;57.20
488;DHT22;16586;48.976;9.584;2022-10-20T15:32:57;18.60;57.30
488;DHT22;16586;48.976;9.584;2022-10-20T15:35:25;18.60;57.10
488;DHT22;16586;48.976;9.584;2022-10-20T15:37:55;18.50;57.30
488;DHT22;16586;48.976;9.584;2022-10-20T15:40:23;18.50;57.20
488;DHT22;16586;48.976;9.584;2022-10-20T15:42:50;18.40;57.00
488;DHT22;16586;48.976;9.584;2022-10-20T15:45:20;18.30;56.70
488;DHT22;16586;48.976;9.584;2022-10-20T15:47:48;18.10;57.50
488;DHT22;16586;48.976;9.584;2022-10-20T15:50:15;18.10;57.80
488;DHT22;16586;48.976;9.584;2022-10-20T15:52:43;18.10;57.80
488;DHT22;16586;48.976;9.584;2022-10-20T15:55:17;18.10;57.80
488;DHT22;16586;48.976;9.584;2022-10-20T15:57:48;18.10;57.80
488;DHT22;16586;48.976;9.584;2022-10-20T16:00:16;18.10;57.80
488;DHT22;16586;48.976;9.584;2022-10-20T16:02:43;18.00;57.70
488;DHT22;16586;48.976;9.584;2022-10-20T16:05:10;18.00;57.70
488;DHT22;16586;48.976;9.584;2022-10-20T16:07:37;18.00;57.70
488;DHT22;16586;48.976;9.584;2022-10-20T16:10:05;17.90;57.90
488;DHT22;16586;48.976;9.584;2022-10-20T16:12:32;17.90;58.10
488;DHT22;16586;48.976;9.584;2022-10-20T16:15:01;18.00;58.20
488;DHT22;16586;48.976;9.584;2022-10-20T16:17:28;18.00;58.30
488;DHT22;16586;48.976;9.584;2022-10-20T16:19:54;17.90;57.60
488;DHT22;16586;48.976;9.584;2022-10-20T16:22:21;17.80;58.30
488;DHT22;16586;48.976;9.584;2022-10-20T16:24:48;17.90;58.60
488;DHT22;16586;48.976;9.584;2022-10-20T16:27:15;17.80;58.50
488;DHT22;16586;48.976;9.584;2022-10-20T16:29:42;17.80;58.70
488;DHT22;16586;48.976;9.584;2022-10-20T16:32:10;17.70;59.00
488;DHT22;16586;48.976;9.584;2022-10-20T16:34:38;17.60;59.00
488;DHT22;16586;48.976;9.584;2022-10-20T16:37:04;17.60;58.80
488;DHT22;16586;48.976;9.584;2022-10-20T16:39:31;17.60;59.00
488;DHT22;16586;48.976;9.584;2022-10-20T16:41:58;17.60;59.50
488;DHT22;16586;48.976;9.584;2022-10-20T16:44:25;17.50;59.30
488;DHT22;16586;48.976;9.584;2022-10-20T16:46:51;17.50;59.30
488;DHT22;16586;48.976;9.584;2022-10-20T16:49:19;17.50;59.40